createdAt,value
2022-11-18T00:01:15.848Z,9.31
2022-11-18T00:03:45.883Z,9.19
2022-11-18T00:06:19.009Z,9.34
2022-11-18T00:08:45.968Z,9.18
2022-11-18T00:11:38.604Z,9.21
2022-11-18T00:14:19.026Z,9.29
2022-11-18T00:16:59.072Z,9.23
2022-11-18T00:19:28.005Z,9.47
2022-11-18T00:21:55.445Z,9.54
2022-11-18T00:24:22.110Z,9.52
2022-11-18T00:26:49.127Z,9.50
2022-11-18T00:29:16.344Z,9.63
2022-11-18T00:31:46.714Z,9.61
2022-11-18T00:34:15.968Z,9.53
2022-11-18T00:36:44.787Z,9.40
2022-11-18T00:39:14.739Z,9.40
2022-11-18T00:42:00.017Z,9.40
2022-11-18T00:44:26.807Z,9.45
2022-11-18T00:46:53.712Z,9.46
2022-11-18T00:49:20.309Z,9.37
2022-11-18T00:51:46.954Z,9.47
2022-11-18T00:54:16.391Z,9.61
2022-11-18T00:56:45.135Z,9.71
2022-11-18T00:59:11.659Z,9.41
2022-11-18T01:01:38.472Z,9.49
2022-11-18T01:04:05.126Z,9.41
2022-11-18T01:06:31.761Z,9.48
2022-11-18T01:08:58.367Z,9.72
2022-11-18T01:11:44.819Z,9.63
2022-11-18T01:14:11.420Z,9.62
2022-11-18T01:16:38.210Z,9.39
2022-11-18T01:19:04.730Z,9.48
2022-11-18T01:21:31.321Z,9.49
2022-11-18T01:23:57.901Z,9.67
2022-11-18T01:26:24.489Z,9.51
2022-11-18T01:28:54.677Z,9.51
2022-11-18T01:31:21.233Z,9.68
2022-11-18T01:33:47.821Z,9.70
2022-11-18T01:36:23.399Z,9.75
2022-11-18T01:38:50.702Z,9.61
2022-11-18T01:41:19.794Z,9.80
2022-11-18T01:44:02.585Z,9.82
2022-11-18T01:46:31.749Z,9.74
2022-11-18T01:49:05.541Z,9.77
2022-11-18T01:51:37.010Z,9.77
2022-11-18T01:54:10.022Z,9.77
2022-11-18T01:56:45.276Z,9.55
2022-11-18T01:59:15.426Z,9.73
2022-11-18T02:01:42.310Z,9.43
2022-11-18T02:04:09.915Z,9.70
2022-11-18T02:06:36.962Z,9.71
2022-11-18T02:09:04.610Z,9.70
2022-11-18T02:11:50.600Z,9.60
2022-11-18T02:14:30.268Z,9.71
2022-11-18T02:17:28.131Z,9.81
2022-11-18T02:20:10.027Z,9.80
2022-11-18T02:22:55.464Z,9.74
2022-11-18T02:25:59.802Z,9.62
2022-11-18T02:28:38.159Z,9.49
2022-11-18T02:31:31.207Z,9.49
2022-11-18T02:34:24.337Z,9.50
2022-11-18T02:37:31.032Z,9.41
2022-11-18T02:40:02.841Z,9.37
2022-11-18T02:42:33.450Z,9.53
2022-11-18T02:45:05.943Z,9.44
2022-11-18T02:47:34.851Z,9.40
2022-11-18T02:50:09.648Z,9.59
2022-11-18T02:52:39.360Z,9.62
2022-11-18T02:55:09.041Z,9.52
2022-11-18T02:57:38.159Z,9.52
2022-11-18T03:00:05.371Z,9.25
2022-11-18T03:02:41.769Z,9.26
2022-11-18T03:05:13.428Z,9.25
2022-11-18T03:07:43.953Z,9.27
2022-11-18T03:10:10.993Z,9.28
2022-11-18T03:12:48.644Z,9.40
2022-11-18T03:15:24.274Z,9.34
2022-11-18T03:18:00.108Z,9.48
2022-11-18T03:20:33.275Z,9.61
2022-11-18T03:23:08.004Z,9.33
2022-11-18T03:25:55.082Z,9.43
2022-11-18T03:28:36.961Z,9.37
2022-11-18T03:31:24.117Z,9.54
2022-11-18T03:33:58.095Z,9.57
2022-11-18T03:36:30.073Z,9.36
2022-11-18T03:39:02.125Z,9.43
2022-11-18T03:41:31.752Z,9.17
2022-11-18T03:44:11.099Z,9.30
2022-11-18T03:46:46.413Z,9.42
2022-11-18T03:49:19.301Z,9.51
2022-11-18T03:51:53.110Z,9.56
2022-11-18T03:54:27.292Z,9.57
2022-11-18T03:57:06.004Z,9.54
2022-11-18T03:59:41.386Z,9.34
2022-11-18T04:02:34.759Z,9.35
2022-11-18T04:05:03.997Z,9.29
2022-11-18T04:07:37.587Z,9.45
2022-11-18T04:10:42.399Z,9.41
2022-11-18T04:13:28.479Z,9.36
2022-11-18T04:15:59.133Z,9.22
2022-11-18T04:18:28.862Z,9.27
2022-11-18T04:20:59.641Z,9.36
2022-11-18T04:23:26.956Z,9.14
2022-11-18T04:25:53.518Z,9.23
2022-11-18T04:28:20.108Z,9.07
2022-11-18T04:30:46.638Z,9.17
2022-11-18T04:33:13.145Z,8.90
2022-11-18T04:35:39.712Z,8.89
2022-11-18T04:38:06.223Z,8.94
2022-11-18T04:40:32.722Z,8.76
2022-11-18T04:42:59.259Z,8.70
2022-11-18T04:45:27.993Z,8.63
2022-11-18T04:47:58.838Z,8.35
2022-11-18T04:50:28.593Z,8.44
2022-11-18T04:52:55.137Z,8.52
2022-11-18T04:55:21.697Z,8.52
2022-11-18T04:57:48.233Z,8.21
2022-11-18T05:00:15.088Z,8.29
2022-11-18T05:02:41.613Z,8.27
2022-11-18T05:05:08.209Z,8.09
2022-11-18T05:07:34.857Z,8.14
2022-11-18T05:10:01.465Z,8.18
2022-11-18T05:12:49.956Z,8.06
2022-11-18T05:15:23.825Z,8.16
2022-11-18T05:17:50.834Z,8.24
2022-11-18T05:20:17.395Z,8.37
2022-11-18T05:22:43.967Z,8.35
2022-11-18T05:25:10.520Z,8.06
2022-11-18T05:27:37.111Z,8.33
2022-11-18T05:30:04.548Z,8.33
2022-11-18T05:32:31.070Z,8.42
2022-11-18T05:34:57.564Z,8.29
2022-11-18T05:37:24.071Z,8.25
2022-11-18T05:39:50.581Z,8.15
2022-11-18T05:42:35.820Z,8.33
2022-11-18T05:45:02.382Z,8.25
2022-11-18T05:47:48.858Z,8.16
2022-11-18T05:50:19.959Z,8.14
2022-11-18T05:52:47.879Z,8.22
2022-11-18T05:55:17.224Z,8.24
2022-11-18T05:57:43.748Z,8.16
2022-11-18T06:00:11.204Z,8.08
2022-11-18T06:02:38.133Z,7.95
2022-11-18T06:05:05.494Z,7.78
2022-11-18T06:07:42.953Z,7.68
2022-11-18T06:10:15.492Z,7.52
2022-11-18T06:12:45.789Z,7.59
2022-11-18T06:15:18.565Z,7.54
2022-11-18T06:17:50.780Z,7.45
2022-11-18T06:20:19.925Z,7.49
2022-11-18T06:22:51.493Z,7.29
2022-11-18T06:25:18.234Z,7.26
2022-11-18T06:27:46.640Z,7.21
2022-11-18T06:30:14.178Z,6.99
2022-11-18T06:32:42.019Z,6.79
2022-11-18T06:35:12.215Z,6.70
2022-11-18T06:37:38.848Z,6.80
2022-11-18T06:40:05.836Z,6.97
2022-11-18T06:42:51.982Z,6.99
2022-11-18T06:45:18.559Z,7.07
2022-11-18T06:47:45.114Z,7.16
2022-11-18T06:50:11.721Z,7.20
2022-11-18T06:52:38.288Z,7.08
2022-11-18T06:55:08.451Z,7.19
2022-11-18T06:57:35.725Z,7.29
2022-11-18T07:00:04.548Z,7.33
2022-11-18T07:02:31.198Z,7.29
2022-11-18T07:04:57.686Z,7.27
2022-11-18T07:07:24.237Z,7.36
2022-11-18T07:09:50.839Z,7.43
2022-11-18T07:12:17.354Z,7.53
2022-11-18T07:14:43.881Z,7.67
2022-11-18T07:17:10.415Z,7.79
2022-11-18T07:19:36.913Z,7.76
2022-11-18T07:22:04.347Z,7.52
2022-11-18T07:24:31.094Z,8.03
2022-11-18T07:26:57.624Z,8.38
2022-11-18T07:29:24.102Z,8.82
2022-11-18T07:31:50.588Z,9.02
2022-11-18T07:34:17.236Z,9.09
2022-11-18T07:36:43.838Z,8.95
2022-11-18T07:39:10.351Z,8.92
2022-11-18T07:41:39.503Z,8.79
2022-11-18T07:44:12.130Z,8.79
2022-11-18T07:46:39.025Z,8.94
2022-11-18T07:49:08.700Z,9.30
2022-11-18T07:51:38.791Z,9.76
2022-11-18T07:54:10.924Z,10.64
2022-11-18T07:56:37.743Z,11.65
2022-11-18T07:59:07.592Z,12.29
2022-11-18T08:01:37.280Z,12.83
2022-11-18T08:04:09.024Z,13.53
2022-11-18T08:06:36.829Z,14.18
2022-11-18T08:09:07.620Z,14.83
2022-11-18T08:11:38.535Z,15.19
2022-11-18T08:14:08.070Z,14.82
2022-11-18T08:16:37.485Z,14.47
2022-11-18T08:19:07.034Z,14.67
2022-11-18T08:21:35.894Z,14.87
2022-11-18T08:24:02.424Z,15.21
2022-11-18T08:26:29.835Z,14.95
2022-11-18T08:28:57.798Z,14.03
2022-11-18T08:31:26.668Z,13.36
2022-11-18T08:34:00.946Z,13.29
2022-11-18T08:36:29.975Z,13.37
2022-11-18T08:38:59.674Z,13.23
2022-11-18T08:41:40.914Z,13.48
2022-11-18T08:44:08.677Z,13.85
2022-11-18T08:46:37.713Z,14.08
2022-11-18T08:49:07.222Z,14.33
2022-11-18T08:51:34.993Z,14.17
2022-11-18T08:54:01.570Z,14.72
2022-11-18T08:56:28.162Z,14.64
2022-11-18T08:58:54.863Z,14.54
2022-11-18T09:01:21.712Z,14.58
2022-11-18T09:03:49.041Z,14.69
2022-11-18T09:06:21.123Z,14.92
2022-11-18T09:08:47.758Z,15.01
2022-11-18T09:11:16.191Z,15.38
2022-11-18T09:14:20.467Z,15.66
2022-11-18T09:16:32.334Z,15.74
2022-11-18T09:19:04.962Z,15.79
2022-11-18T09:21:44.944Z,15.81
2022-11-18T09:24:11.960Z,16.06
2022-11-18T09:26:39.166Z,16.32
2022-11-18T09:29:08.926Z,16.57
2022-11-18T09:31:38.400Z,17.11
2022-11-18T09:34:10.386Z,17.49
2022-11-18T09:36:38.044Z,17.73
2022-11-18T09:39:07.171Z,17.43
2022-11-18T09:41:47.778Z,16.95
2022-11-18T09:44:39.315Z,16.17
2022-11-18T09:47:38.450Z,15.13
2022-11-18T09:50:42.197Z,14.15
2022-11-18T09:53:23.029Z,13.54
2022-11-18T09:55:52.272Z,13.01
2022-11-18T09:58:29.549Z,12.61
2022-11-18T10:00:56.136Z,12.13
2022-11-18T10:03:22.612Z,12.19
2022-11-18T10:06:09.535Z,12.10
2022-11-18T10:08:48.233Z,12.49
2022-11-18T10:11:19.572Z,12.41
2022-11-18T10:14:07.000Z,12.60
2022-11-18T10:17:02.834Z,12.59
2022-11-18T10:20:13.807Z,12.40
2022-11-18T10:22:48.932Z,12.20
2022-11-18T10:25:18.033Z,12.32
2022-11-18T10:27:47.712Z,12.36
2022-11-18T10:30:18.612Z,12.79
2022-11-18T10:32:58.810Z,13.36
2022-11-18T10:35:37.443Z,13.22
2022-11-18T10:38:13.127Z,13.00
2022-11-18T10:40:47.413Z,12.79
2022-11-18T10:43:52.325Z,12.73
2022-11-18T10:46:27.692Z,13.01
2022-11-18T10:49:13.241Z,13.01
2022-11-18T10:51:41.210Z,13.13
2022-11-18T10:54:20.274Z,12.97
2022-11-18T10:56:58.373Z,12.83
2022-11-18T10:59:38.824Z,12.64
2022-11-18T11:02:31.109Z,12.57
2022-11-18T11:04:59.783Z,12.51
2022-11-18T11:07:32.549Z,12.15
2022-11-18T11:10:08.277Z,12.22
2022-11-18T11:12:38.245Z,12.31
2022-11-18T11:15:12.274Z,12.64
2022-11-18T11:18:16.069Z,12.80
2022-11-18T11:20:42.662Z,12.59
2022-11-18T11:23:10.780Z,12.73
2022-11-18T11:29:02.858Z,13.72
2022-11-18T11:31:51.040Z,13.88
2022-11-18T11:34:42.308Z,13.51
2022-11-18T11:37:17.638Z,12.83
2022-11-18T11:39:50.166Z,12.75
2022-11-18T11:42:44.152Z,12.63
2022-11-18T11:45:28.860Z,12.59
2022-11-18T11:48:10.465Z,12.50
2022-11-18T11:51:03.973Z,12.34
2022-11-18T11:53:54.176Z,12.12
2022-11-18T11:56:50.098Z,12.34
2022-11-18T11:59:37.780Z,12.45
2022-11-18T12:02:21.307Z,12.36
2022-11-18T12:05:17.089Z,12.61
2022-11-18T12:07:55.582Z,12.58
2022-11-18T12:10:42.761Z,12.61
2022-11-18T12:13:27.211Z,12.58
2022-11-18T12:16:04.009Z,12.57
2022-11-18T12:18:43.718Z,12.57
2022-11-18T12:21:42.378Z,12.62
2022-11-18T12:24:34.244Z,12.68
2022-11-18T12:27:08.257Z,12.74
2022-11-18T12:29:50.264Z,12.83
2022-11-18T12:32:29.681Z,12.78
2022-11-18T12:35:04.354Z,12.72
2022-11-18T12:37:50.866Z,12.50
2022-11-18T12:40:32.503Z,12.13
2022-11-18T12:43:18.075Z,11.95
2022-11-18T12:45:48.396Z,12.02
2022-11-18T12:48:27.246Z,12.01
2022-11-18T12:50:59.512Z,11.98
2022-11-18T12:53:35.404Z,11.92
2022-11-18T12:56:21.956Z,11.71
2022-11-18T12:58:56.962Z,11.95
2022-11-18T13:01:27.879Z,12.10
2022-11-18T13:04:08.834Z,12.68
2022-11-18T13:06:41.823Z,13.72
2022-11-18T13:09:21.439Z,14.37
2022-11-18T13:11:57.631Z,15.05
2022-11-18T13:14:55.078Z,15.09
2022-11-18T13:17:51.879Z,14.79
2022-11-18T13:20:31.474Z,14.45
2022-11-18T13:23:17.654Z,13.97
2022-11-18T13:25:46.096Z,13.61
2022-11-18T13:28:30.745Z,13.27
2022-11-18T13:31:07.270Z,12.90
2022-11-18T13:33:42.761Z,12.68
2022-11-18T13:36:18.144Z,12.37
2022-11-18T13:39:02.787Z,12.40
2022-11-18T13:41:33.784Z,12.15
2022-11-18T13:44:22.688Z,12.15
2022-11-18T13:46:54.211Z,12.18
2022-11-18T13:49:43.116Z,12.20
2022-11-18T13:52:18.546Z,12.24
2022-11-18T13:54:46.216Z,12.01
2022-11-18T13:57:25.420Z,12.06
2022-11-18T13:59:55.012Z,11.94
2022-11-18T14:02:22.265Z,11.83
2022-11-18T14:04:57.978Z,12.09
2022-11-18T14:07:28.378Z,12.65
2022-11-18T14:09:58.829Z,12.95
2022-11-18T14:15:36.923Z,13.26
2022-11-18T14:18:19.109Z,12.88
2022-11-18T14:20:51.913Z,12.74
2022-11-18T14:23:29.070Z,13.05
2022-11-18T14:25:56.741Z,13.23
2022-11-18T14:28:28.585Z,13.45
2022-11-18T14:30:57.242Z,13.42
2022-11-18T14:33:25.611Z,13.23
2022-11-18T14:35:56.662Z,12.85
2022-11-18T14:38:38.812Z,12.74
2022-11-18T14:41:41.061Z,12.31
2022-11-18T14:44:17.653Z,12.03
2022-11-18T14:46:48.524Z,11.87
2022-11-18T14:49:18.718Z,11.84
2022-11-18T14:51:46.515Z,11.88
2022-11-18T14:54:17.220Z,11.74
2022-11-18T14:56:49.020Z,11.71
2022-11-18T14:59:18.404Z,11.48
2022-11-18T15:01:46.219Z,11.61
2022-11-18T15:04:13.933Z,11.70
2022-11-18T15:06:46.652Z,11.54
2022-11-18T15:09:13.433Z,11.74
2022-11-18T15:11:44.734Z,11.69
2022-11-18T15:14:14.110Z,11.40
2022-11-18T15:16:43.623Z,11.28
2022-11-18T15:19:15.107Z,11.38
2022-11-18T15:21:47.453Z,11.32
2022-11-18T15:24:13.984Z,11.32
2022-11-18T15:26:46.297Z,11.20
2022-11-18T15:29:19.099Z,11.19
2022-11-18T15:31:46.656Z,10.93
2022-11-18T15:34:13.740Z,10.91
2022-11-18T15:36:43.774Z,10.90
2022-11-18T15:39:13.962Z,10.85
2022-11-18T15:41:42.866Z,10.78
2022-11-18T15:44:13.367Z,10.75
2022-11-18T15:46:42.791Z,10.72
2022-11-18T15:49:13.303Z,10.43
2022-11-18T15:51:42.942Z,10.41
2022-11-18T15:54:13.253Z,10.25
2022-11-18T15:56:42.803Z,10.25
2022-11-18T15:59:14.590Z,10.19
2022-11-18T16:01:46.954Z,10.13
2022-11-18T16:04:17.520Z,10.27
2022-11-18T16:06:44.807Z,10.07
2022-11-18T16:09:17.249Z,10.11
2022-11-18T16:12:02.816Z,9.97
2022-11-18T16:14:29.337Z,10.13
2022-11-18T16:16:56.742Z,10.03
2022-11-18T16:19:25.620Z,10.01
2022-11-18T16:21:55.210Z,9.88
2022-11-18T16:24:23.996Z,9.88
2022-11-18T16:26:50.509Z,9.81
2022-11-18T16:29:48.300Z,9.70
2022-11-18T16:32:13.051Z,9.65
2022-11-18T16:34:42.602Z,9.60
2022-11-18T16:37:10.530Z,9.72
2022-11-18T16:39:37.026Z,9.73
2022-11-18T16:42:08.769Z,9.98
2022-11-18T16:44:36.684Z,9.85
2022-11-18T16:47:06.512Z,9.96
2022-11-18T16:49:37.271Z,9.84
2022-11-18T16:52:03.872Z,9.79
2022-11-18T16:54:31.771Z,9.67
2022-11-18T16:56:59.158Z,9.56
2022-11-18T16:59:28.336Z,9.41
2022-11-18T17:01:56.718Z,9.35
2022-11-18T17:04:25.575Z,9.13
2022-11-18T17:06:52.786Z,9.09
2022-11-18T17:09:21.772Z,9.08
2022-11-18T17:11:49.419Z,9.00
2022-11-18T17:14:16.120Z,9.01
2022-11-18T17:16:42.908Z,8.84
2022-11-18T17:19:14.169Z,8.95
2022-11-18T17:21:45.220Z,8.89
2022-11-18T17:24:15.276Z,8.77
2022-11-18T17:26:45.299Z,8.59
2022-11-18T17:29:12.873Z,8.49
2022-11-18T17:31:43.869Z,8.45
2022-11-18T17:34:15.065Z,8.27
2022-11-18T17:36:42.671Z,8.46
2022-11-18T17:39:16.297Z,8.48
2022-11-18T17:42:01.357Z,8.65
2022-11-18T17:44:29.235Z,8.57
2022-11-18T17:46:56.002Z,8.51
2022-11-18T17:49:22.630Z,8.40
2022-11-18T17:51:51.210Z,8.37
2022-11-18T17:54:18.738Z,8.12
2022-11-18T17:56:45.859Z,7.98
2022-11-18T17:59:14.453Z,7.99
2022-11-18T18:01:45.439Z,8.08
2022-11-18T18:04:14.554Z,8.01
2022-11-18T18:06:42.006Z,8.01
2022-11-18T18:09:11.592Z,8.02
2022-11-18T18:11:38.080Z,7.95
2022-11-18T18:14:13.644Z,8.05
2022-11-18T18:16:50.920Z,8.06
2022-11-18T18:19:22.244Z,8.09
2022-11-18T18:21:49.287Z,8.09
2022-11-18T18:24:18.197Z,7.93
2022-11-18T18:26:45.534Z,8.10
2022-11-18T18:29:12.777Z,8.14
2022-11-18T18:31:42.321Z,7.78
2022-11-18T18:34:11.232Z,7.83
2022-11-18T18:36:38.010Z,7.69
2022-11-18T18:39:04.954Z,7.88
2022-11-18T18:41:32.596Z,7.93
2022-11-18T18:43:59.716Z,8.11
2022-11-18T18:46:30.907Z,8.06
2022-11-18T18:49:00.923Z,8.08
2022-11-18T18:51:30.230Z,8.04
2022-11-18T18:53:58.329Z,8.12
2022-11-18T18:56:25.311Z,8.04
2022-11-18T18:58:51.913Z,7.98
2022-11-18T19:01:19.472Z,7.96
2022-11-18T19:03:46.227Z,7.85
2022-11-18T19:06:41.949Z,7.67
2022-11-18T19:09:06.170Z,7.57
2022-11-18T19:11:51.207Z,7.44
2022-11-18T19:14:19.234Z,7.77
2022-11-18T19:16:47.926Z,7.84
2022-11-18T19:19:17.873Z,7.76
2022-11-18T19:21:47.612Z,7.85
2022-11-18T19:24:42.414Z,7.66
2022-11-18T19:27:00.729Z,7.78
2022-11-18T19:29:27.225Z,7.65
2022-11-18T19:31:53.743Z,7.51
2022-11-18T19:34:20.680Z,7.57
2022-11-18T19:36:47.485Z,7.65
2022-11-18T19:39:14.017Z,7.81
2022-11-18T19:41:43.413Z,7.66
2022-11-18T19:44:13.498Z,7.51
2022-11-18T19:46:42.879Z,7.51
2022-11-18T19:49:11.378Z,7.46
2022-11-18T19:51:37.954Z,7.38
2022-11-18T19:54:05.406Z,7.50
2022-11-18T19:56:31.895Z,7.50
2022-11-18T19:58:59.448Z,7.54
2022-11-18T20:01:28.671Z,7.83
2022-11-18T20:03:57.807Z,8.05
2022-11-18T20:06:26.566Z,8.06
2022-11-18T20:08:54.331Z,7.76
2022-11-18T20:11:22.077Z,7.59
2022-11-18T20:13:48.837Z,7.65
2022-11-18T20:16:19.572Z,7.57
2022-11-18T20:18:50.238Z,7.60
2022-11-18T20:21:21.874Z,7.50
2022-11-18T20:23:51.041Z,7.35
2022-11-18T20:26:19.724Z,7.36
2022-11-18T20:28:51.690Z,7.26
2022-11-18T20:31:23.160Z,7.18
2022-11-18T20:33:52.268Z,7.15
2022-11-18T20:36:24.341Z,7.07
2022-11-18T20:38:53.236Z,6.85
2022-11-18T20:41:20.539Z,6.91
2022-11-18T20:43:48.130Z,7.03
2022-11-18T20:46:20.743Z,7.06
2022-11-18T20:48:48.758Z,7.10
2022-11-18T20:51:19.333Z,7.12
2022-11-18T20:53:46.450Z,7.29
2022-11-18T20:56:20.805Z,7.30
2022-11-18T20:58:47.642Z,7.30
2022-11-18T21:01:26.203Z,7.33
2022-11-18T21:03:57.650Z,7.37
2022-11-18T21:06:26.637Z,7.28
2022-11-18T21:08:59.760Z,7.25
2022-11-18T21:11:27.225Z,7.19
2022-11-18T21:14:19.890Z,7.17
2022-11-18T21:16:53.767Z,7.15
2022-11-18T21:19:20.627Z,7.08
2022-11-18T21:21:54.704Z,7.13
2022-11-18T21:24:28.267Z,7.17
2022-11-18T21:26:55.770Z,7.17
2022-11-18T21:29:23.683Z,7.22
2022-11-18T21:31:51.042Z,7.15
2022-11-18T21:34:18.432Z,7.03
2022-11-18T21:36:49.121Z,6.98
2022-11-18T21:39:18.515Z,6.99
2022-11-18T21:41:47.532Z,6.96
2022-11-18T21:44:17.440Z,6.97
2022-11-18T21:46:46.717Z,6.79
2022-11-18T21:49:16.719Z,6.82
2022-11-18T21:51:44.807Z,6.89
2022-11-18T21:54:14.879Z,6.88
2022-11-18T21:56:41.378Z,6.86
2022-11-18T21:59:07.939Z,6.96
2022-11-18T22:01:34.840Z,7.03
2022-11-18T22:04:03.803Z,7.00
2022-11-18T22:06:33.793Z,6.77
2022-11-18T22:09:02.251Z,6.79
2022-11-18T22:11:29.052Z,6.71
2022-11-18T22:13:56.044Z,6.71
2022-11-18T22:16:24.235Z,6.79
2022-11-18T22:18:58.050Z,6.74
2022-11-18T22:21:28.053Z,6.74
2022-11-18T22:24:00.086Z,6.78
2022-11-18T22:26:27.968Z,6.92
2022-11-18T22:28:57.082Z,6.88
2022-11-18T22:31:25.698Z,7.04
2022-11-18T22:33:52.968Z,6.95
2022-11-18T22:36:22.511Z,6.96
2022-11-18T22:38:49.693Z,6.98
2022-11-18T22:41:41.065Z,6.88
2022-11-18T22:44:09.257Z,6.83
2022-11-18T22:46:37.365Z,6.91
2022-11-18T22:49:05.128Z,6.83
2022-11-18T22:51:32.380Z,6.90
2022-11-18T22:56:47.713Z,6.91
2022-11-18T22:59:14.677Z,6.79
2022-11-18T23:01:41.564Z,6.65
2022-11-18T23:04:08.098Z,6.57
2022-11-18T23:06:35.121Z,6.69
2022-11-18T23:09:02.343Z,6.46
2022-11-18T23:11:47.574Z,6.56
2022-11-18T23:14:14.294Z,6.43
2022-11-18T23:16:42.666Z,6.36
2022-11-18T23:19:13.991Z,6.34
2022-11-18T23:21:41.664Z,6.19
2022-11-18T23:24:12.715Z,6.18
2022-11-18T23:26:39.270Z,5.97
2022-11-18T23:29:05.888Z,6.19
2022-11-18T23:31:32.478Z,5.97
2022-11-18T23:33:59.650Z,5.98
2022-11-18T23:36:27.119Z,5.82
2022-11-18T23:38:54.084Z,5.75
2022-11-18T23:41:21.292Z,6.17
2022-11-18T23:43:51.148Z,6.13
2022-11-18T23:46:21.820Z,6.23
2022-11-18T23:48:51.611Z,6.23
2022-11-18T23:51:23.752Z,6.11
2022-11-18T23:53:55.478Z,6.06
2022-11-18T23:56:25.482Z,5.84
2022-11-18T23:58:54.777Z,6.00
